sensor_id;sensor_type;location;lat;lon;timestamp;P1;durP1;ratioP1;P2;durP2;ratioP2
3953;SDS011;1991;48.682;9.030;2023-01-29T00:01:41;11.43;;;9.17;;
3953;SDS011;1991;48.682;9.030;2023-01-29T00:04:07;10.07;;;7.57;;
3953;SDS011;1991;48.682;9.030;2023-01-29T00:06:32;10.20;;;7.73;;
3953;SDS011;1991;48.682;9.030;2023-01-29T00:08:58;10.60;;;8.67;;
3953;SDS011;1991;48.682;9.030;2023-01-29T00:11:24;32.03;;;15.87;;
3953;SDS011;1991;48.682;9.030;2023-01-29T00:13:50;25.43;;;12.93;;
3953;SDS011;1991;48.682;9.030;2023-01-29T00:16:16;11.50;;;7.60;;
3953;SDS011;1991;48.682;9.030;2023-01-29T00:18:42;19.77;;;11.27;;
3953;SDS011;1991;48.682;9.030;2023-01-29T00:21:11;12.70;;;8.13;;
3953;SDS011;1991;48.682;9.030;2023-01-29T00:23:39;11.27;;;7.97;;
3953;SDS011;1991;48.682;9.030;2023-01-29T00:26:05;13.50;;;9.77;;
3953;SDS011;1991;48.682;9.030;2023-01-29T00:28:31;10.67;;;7.97;;
3953;SDS011;1991;48.682;9.030;2023-01-29T00:30:56;9.40;;;7.57;;
3953;SDS011;1991;48.682;9.030;2023-01-29T00:33:22;10.90;;;8.00;;
3953;SDS011;1991;48.682;9.030;2023-01-29T00:35:48;11.10;;;7.67;;
3953;SDS011;1991;48.682;9.030;2023-01-29T00:38:13;6.10;;;4.73;;
3953;SDS011;1991;48.682;9.030;2023-01-29T00:40:39;9.53;;;7.30;;
3953;SDS011;1991;48.682;9.030;2023-01-29T00:43:24;15.10;;;9.60;;
3953;SDS011;1991;48.682;9.030;2023-01-29T00:46:08;12.17;;;9.13;;
3953;SDS011;1991;48.682;9.030;2023-01-29T00:48:34;18.13;;;11.03;;
3953;SDS011;1991;48.682;9.030;2023-01-29T00:51:00;37.87;;;19.60;;
3953;SDS011;1991;48.682;9.030;2023-01-29T00:53:27;21.80;;;12.20;;
3953;SDS011;1991;48.682;9.030;2023-01-29T00:55:53;19.53;;;11.07;;
3953;SDS011;1991;48.682;9.030;2023-01-29T00:58:18;10.73;;;8.27;;
3953;SDS011;1991;48.682;9.030;2023-01-29T01:00:52;10.03;;;8.03;;
3953;SDS011;1991;48.682;9.030;2023-01-29T01:03:19;21.77;;;12.17;;
3953;SDS011;1991;48.682;9.030;2023-01-29T01:05:45;17.43;;;9.77;;
3953;SDS011;1991;48.682;9.030;2023-01-29T01:08:10;11.20;;;8.07;;
3953;SDS011;1991;48.682;9.030;2023-01-29T01:10:59;17.33;;;10.53;;
3953;SDS011;1991;48.682;9.030;2023-01-29T01:13:25;12.93;;;8.77;;
3953;SDS011;1991;48.682;9.030;2023-01-29T01:15:51;12.37;;;8.77;;
3953;SDS011;1991;48.682;9.030;2023-01-29T01:18:17;8.83;;;7.27;;
3953;SDS011;1991;48.682;9.030;2023-01-29T01:20:55;7.83;;;6.53;;
3953;SDS011;1991;48.682;9.030;2023-01-29T01:23:22;7.43;;;5.93;;
3953;SDS011;1991;48.682;9.030;2023-01-29T01:25:48;6.50;;;4.73;;
3953;SDS011;1991;48.682;9.030;2023-01-29T01:28:13;16.20;;;11.03;;
3953;SDS011;1991;48.682;9.030;2023-01-29T01:30:39;12.00;;;8.10;;
3953;SDS011;1991;48.682;9.030;2023-01-29T01:33:05;10.27;;;6.77;;
3953;SDS011;1991;48.682;9.030;2023-01-29T01:35:31;6.90;;;5.83;;
3953;SDS011;1991;48.682;9.030;2023-01-29T01:37:56;7.10;;;5.73;;
3953;SDS011;1991;48.682;9.030;2023-01-29T01:40:22;6.87;;;5.90;;
3953;SDS011;1991;48.682;9.030;2023-01-29T01:42:56;7.63;;;5.80;;
3953;SDS011;1991;48.682;9.030;2023-01-29T01:45:24;11.77;;;7.87;;
3953;SDS011;1991;48.682;9.030;2023-01-29T01:48:02;12.93;;;8.87;;
3953;SDS011;1991;48.682;9.030;2023-01-29T01:50:44;7.50;;;6.10;;
3953;SDS011;1991;48.682;9.030;2023-01-29T01:53:34;7.30;;;5.57;;
3953;SDS011;1991;48.682;9.030;2023-01-29T01:56:04;6.47;;;5.17;;
3953;SDS011;1991;48.682;9.030;2023-01-29T01:58:44;5.33;;;4.63;;
3953;SDS011;1991;48.682;9.030;2023-01-29T02:01:15;6.23;;;5.07;;
3953;SDS011;1991;48.682;9.030;2023-01-29T02:03:49;6.77;;;5.23;;
3953;SDS011;1991;48.682;9.030;2023-01-29T02:06:47;6.43;;;4.60;;
3953;SDS011;1991;48.682;9.030;2023-01-29T02:09:33;5.70;;;4.77;;
3953;SDS011;1991;48.682;9.030;2023-01-29T02:12:07;5.97;;;5.03;;
3953;SDS011;1991;48.682;9.030;2023-01-29T02:14:36;7.27;;;4.93;;
3953;SDS011;1991;48.682;9.030;2023-01-29T02:17:04;6.13;;;5.23;;
3953;SDS011;1991;48.682;9.030;2023-01-29T02:19:47;7.33;;;6.13;;
3953;SDS011;1991;48.682;9.030;2023-01-29T02:36:50;6.73;;;5.60;;
3953;SDS011;1991;48.682;9.030;2023-01-29T02:39:28;6.63;;;5.60;;
3953;SDS011;1991;48.682;9.030;2023-01-29T02:42:20;7.87;;;6.07;;
3953;SDS011;1991;48.682;9.030;2023-01-29T02:45:04;5.47;;;4.80;;
3953;SDS011;1991;48.682;9.030;2023-01-29T02:47:39;6.97;;;5.40;;
3953;SDS011;1991;48.682;9.030;2023-01-29T02:50:18;5.93;;;5.13;;
3953;SDS011;1991;48.682;9.030;2023-01-29T02:53:17;7.37;;;5.70;;
3953;SDS011;1991;48.682;9.030;2023-01-29T02:56:18;9.03;;;7.27;;
3953;SDS011;1991;48.682;9.030;2023-01-29T02:58:59;9.70;;;7.70;;
3953;SDS011;1991;48.682;9.030;2023-01-29T03:01:35;9.57;;;7.20;;
3953;SDS011;1991;48.682;9.030;2023-01-29T03:04:08;9.43;;;6.83;;
3953;SDS011;1991;48.682;9.030;2023-01-29T03:06:40;7.80;;;6.03;;
3953;SDS011;1991;48.682;9.030;2023-01-29T03:09:13;15.23;;;8.50;;
3953;SDS011;1991;48.682;9.030;2023-01-29T03:11:45;11.50;;;7.80;;
3953;SDS011;1991;48.682;9.030;2023-01-29T03:14:32;6.80;;;5.27;;
3953;SDS011;1991;48.682;9.030;2023-01-29T03:17:20;9.67;;;6.40;;
3953;SDS011;1991;48.682;9.030;2023-01-29T03:19:48;6.83;;;5.23;;
3953;SDS011;1991;48.682;9.030;2023-01-29T03:22:15;4.97;;;4.47;;
3953;SDS011;1991;48.682;9.030;2023-01-29T03:24:52;5.93;;;4.83;;
3953;SDS011;1991;48.682;9.030;2023-01-29T03:27:40;6.63;;;5.63;;
3953;SDS011;1991;48.682;9.030;2023-01-29T03:30:29;9.63;;;5.67;;
3953;SDS011;1991;48.682;9.030;2023-01-29T03:33:18;12.90;;;7.07;;
3953;SDS011;1991;48.682;9.030;2023-01-29T03:35:52;8.13;;;5.57;;
3953;SDS011;1991;48.682;9.030;2023-01-29T03:38:25;6.63;;;5.03;;
3953;SDS011;1991;48.682;9.030;2023-01-29T03:46:22;8.90;;;6.10;;
3953;SDS011;1991;48.682;9.030;2023-01-29T03:49:00;8.83;;;6.90;;
3953;SDS011;1991;48.682;9.030;2023-01-29T03:51:52;7.87;;;5.27;;
3953;SDS011;1991;48.682;9.030;2023-01-29T03:57:34;5.73;;;4.87;;
3953;SDS011;1991;48.682;9.030;2023-01-29T04:00:13;8.23;;;5.03;;
3953;SDS011;1991;48.682;9.030;2023-01-29T04:05:20;6.83;;;5.10;;
3953;SDS011;1991;48.682;9.030;2023-01-29T04:07:51;6.30;;;4.97;;
3953;SDS011;1991;48.682;9.030;2023-01-29T04:10:25;5.60;;;4.87;;
3953;SDS011;1991;48.682;9.030;2023-01-29T04:13:03;5.90;;;4.90;;
3953;SDS011;1991;48.682;9.030;2023-01-29T04:15:33;6.57;;;4.83;;
3953;SDS011;1991;48.682;9.030;2023-01-29T04:18:07;5.50;;;4.93;;
3953;SDS011;1991;48.682;9.030;2023-01-29T04:20:33;6.40;;;5.30;;
3953;SDS011;1991;48.682;9.030;2023-01-29T04:22:59;6.60;;;5.40;;
3953;SDS011;1991;48.682;9.030;2023-01-29T04:25:26;5.87;;;5.20;;
3953;SDS011;1991;48.682;9.030;2023-01-29T04:28:12;7.10;;;5.37;;
3953;SDS011;1991;48.682;9.030;2023-01-29T04:30:53;6.00;;;4.67;;
3953;SDS011;1991;48.682;9.030;2023-01-29T04:33:34;7.10;;;4.90;;
3953;SDS011;1991;48.682;9.030;2023-01-29T04:38:55;6.20;;;5.00;;
3953;SDS011;1991;48.682;9.030;2023-01-29T04:44:46;7.17;;;5.57;;
3953;SDS011;1991;48.682;9.030;2023-01-29T04:47:26;8.07;;;5.50;;
3953;SDS011;1991;48.682;9.030;2023-01-29T04:56:06;6.40;;;5.50;;
3953;SDS011;1991;48.682;9.030;2023-01-29T04:59:01;6.50;;;5.37;;
3953;SDS011;1991;48.682;9.030;2023-01-29T05:01:31;6.43;;;5.23;;
3953;SDS011;1991;48.682;9.030;2023-01-29T05:04:00;6.97;;;5.33;;
3953;SDS011;1991;48.682;9.030;2023-01-29T05:06:30;6.97;;;5.70;;
3953;SDS011;1991;48.682;9.030;2023-01-29T05:08:56;6.53;;;5.53;;
3953;SDS011;1991;48.682;9.030;2023-01-29T05:11:23;7.00;;;5.67;;
3953;SDS011;1991;48.682;9.030;2023-01-29T05:13:49;6.17;;;5.47;;
3953;SDS011;1991;48.682;9.030;2023-01-29T05:16:16;6.83;;;5.10;;
3953;SDS011;1991;48.682;9.030;2023-01-29T05:18:47;5.63;;;4.33;;
3953;SDS011;1991;48.682;9.030;2023-01-29T05:21:13;5.87;;;4.37;;
3953;SDS011;1991;48.682;9.030;2023-01-29T05:23:39;5.10;;;4.60;;
3953;SDS011;1991;48.682;9.030;2023-01-29T05:26:18;5.93;;;4.87;;
3953;SDS011;1991;48.682;9.030;2023-01-29T05:29:03;5.20;;;4.50;;
3953;SDS011;1991;48.682;9.030;2023-01-29T05:31:29;4.93;;;4.37;;
3953;SDS011;1991;48.682;9.030;2023-01-29T05:33:55;6.07;;;5.47;;
3953;SDS011;1991;48.682;9.030;2023-01-29T05:36:20;6.93;;;5.13;;
3953;SDS011;1991;48.682;9.030;2023-01-29T05:38:46;5.57;;;4.67;;
3953;SDS011;1991;48.682;9.030;2023-01-29T05:41:12;6.73;;;4.87;;
3953;SDS011;1991;48.682;9.030;2023-01-29T05:43:37;5.57;;;4.97;;
3953;SDS011;1991;48.682;9.030;2023-01-29T05:46:03;6.73;;;4.57;;
3953;SDS011;1991;48.682;9.030;2023-01-29T05:48:28;6.83;;;4.97;;
3953;SDS011;1991;48.682;9.030;2023-01-29T05:51:02;7.03;;;5.27;;
3953;SDS011;1991;48.682;9.030;2023-01-29T05:53:28;7.47;;;5.40;;
3953;SDS011;1991;48.682;9.030;2023-01-29T05:55:55;7.43;;;5.67;;
3953;SDS011;1991;48.682;9.030;2023-01-29T05:58:23;5.93;;;4.83;;
3953;SDS011;1991;48.682;9.030;2023-01-29T06:00:49;5.07;;;4.50;;
3953;SDS011;1991;48.682;9.030;2023-01-29T06:03:14;6.00;;;5.00;;
3953;SDS011;1991;48.682;9.030;2023-01-29T06:05:40;6.33;;;5.13;;
3953;SDS011;1991;48.682;9.030;2023-01-29T06:08:06;5.33;;;4.83;;
3953;SDS011;1991;48.682;9.030;2023-01-29T06:10:32;6.77;;;5.10;;
3953;SDS011;1991;48.682;9.030;2023-01-29T06:12:58;6.93;;;4.93;;
3953;SDS011;1991;48.682;9.030;2023-01-29T06:15:23;6.33;;;4.97;;
3953;SDS011;1991;48.682;9.030;2023-01-29T06:17:52;7.27;;;5.27;;
3953;SDS011;1991;48.682;9.030;2023-01-29T06:20:18;6.87;;;5.47;;
3953;SDS011;1991;48.682;9.030;2023-01-29T06:22:43;7.33;;;5.30;;
3953;SDS011;1991;48.682;9.030;2023-01-29T06:25:09;6.30;;;5.57;;
3953;SDS011;1991;48.682;9.030;2023-01-29T06:27:35;7.90;;;6.37;;
3953;SDS011;1991;48.682;9.030;2023-01-29T06:30:01;6.07;;;5.17;;
3953;SDS011;1991;48.682;9.030;2023-01-29T06:32:27;6.70;;;5.37;;
3953;SDS011;1991;48.682;9.030;2023-01-29T06:34:53;9.90;;;5.33;;
3953;SDS011;1991;48.682;9.030;2023-01-29T06:37:19;5.87;;;5.20;;
3953;SDS011;1991;48.682;9.030;2023-01-29T06:39:44;5.73;;;4.93;;
3953;SDS011;1991;48.682;9.030;2023-01-29T06:42:10;5.40;;;4.90;;
3953;SDS011;1991;48.682;9.030;2023-01-29T06:44:35;6.20;;;5.60;;
3953;SDS011;1991;48.682;9.030;2023-01-29T06:47:01;6.57;;;5.13;;
3953;SDS011;1991;48.682;9.030;2023-01-29T06:49:26;7.50;;;6.17;;
3953;SDS011;1991;48.682;9.030;2023-01-29T06:51:52;5.27;;;4.77;;
3953;SDS011;1991;48.682;9.030;2023-01-29T06:54:17;6.70;;;5.30;;
3953;SDS011;1991;48.682;9.030;2023-01-29T06:56:43;5.93;;;5.33;;
3953;SDS011;1991;48.682;9.030;2023-01-29T06:59:09;5.97;;;5.37;;
3953;SDS011;1991;48.682;9.030;2023-01-29T07:01:37;5.90;;;5.30;;
3953;SDS011;1991;48.682;9.030;2023-01-29T07:04:08;16.17;;;10.90;;
3953;SDS011;1991;48.682;9.030;2023-01-29T07:06:34;8.03;;;6.10;;
3953;SDS011;1991;48.682;9.030;2023-01-29T07:09:00;8.63;;;5.77;;
3953;SDS011;1991;48.682;9.030;2023-01-29T07:11:26;6.90;;;6.20;;
3953;SDS011;1991;48.682;9.030;2023-01-29T07:13:52;6.70;;;5.70;;
3953;SDS011;1991;48.682;9.030;2023-01-29T07:16:17;6.53;;;5.63;;
3953;SDS011;1991;48.682;9.030;2023-01-29T07:18:43;7.33;;;5.97;;
3953;SDS011;1991;48.682;9.030;2023-01-29T07:21:09;7.90;;;5.93;;
3953;SDS011;1991;48.682;9.030;2023-01-29T07:23:34;7.63;;;5.83;;
3953;SDS011;1991;48.682;9.030;2023-01-29T07:26:00;9.43;;;6.60;;
3953;SDS011;1991;48.682;9.030;2023-01-29T07:28:27;8.13;;;6.27;;
3953;SDS011;1991;48.682;9.030;2023-01-29T07:30:56;9.07;;;7.00;;
3953;SDS011;1991;48.682;9.030;2023-01-29T07:33:22;7.63;;;6.83;;
3953;SDS011;1991;48.682;9.030;2023-01-29T07:35:49;7.57;;;6.53;;
3953;SDS011;1991;48.682;9.030;2023-01-29T07:38:14;8.57;;;7.53;;
3953;SDS011;1991;48.682;9.030;2023-01-29T07:40:40;8.87;;;6.40;;
3953;SDS011;1991;48.682;9.030;2023-01-29T07:43:06;7.33;;;5.87;;
3953;SDS011;1991;48.682;9.030;2023-01-29T07:45:34;7.60;;;6.23;;
3953;SDS011;1991;48.682;9.030;2023-01-29T07:48:01;8.77;;;6.83;;
3953;SDS011;1991;48.682;9.030;2023-01-29T07:50:29;6.70;;;6.07;;
3953;SDS011;1991;48.682;9.030;2023-01-29T07:52:54;7.43;;;6.43;;
3953;SDS011;1991;48.682;9.030;2023-01-29T07:55:20;8.50;;;6.53;;
3953;SDS011;1991;48.682;9.030;2023-01-29T07:57:59;7.20;;;6.33;;
3953;SDS011;1991;48.682;9.030;2023-01-29T08:00:26;7.27;;;5.97;;
3953;SDS011;1991;48.682;9.030;2023-01-29T08:02:52;6.90;;;6.20;;
3953;SDS011;1991;48.682;9.030;2023-01-29T08:05:18;8.03;;;6.40;;
3953;SDS011;1991;48.682;9.030;2023-01-29T08:07:44;7.30;;;6.10;;
3953;SDS011;1991;48.682;9.030;2023-01-29T08:10:10;8.10;;;6.47;;
3953;SDS011;1991;48.682;9.030;2023-01-29T08:12:35;8.03;;;6.60;;
3953;SDS011;1991;48.682;9.030;2023-01-29T08:15:01;8.23;;;6.50;;
3953;SDS011;1991;48.682;9.030;2023-01-29T08:17:27;7.00;;;6.30;;
3953;SDS011;1991;48.682;9.030;2023-01-29T08:19:52;8.37;;;7.33;;
3953;SDS011;1991;48.682;9.030;2023-01-29T08:22:18;7.67;;;6.43;;
3953;SDS011;1991;48.682;9.030;2023-01-29T08:24:43;7.83;;;6.23;;
3953;SDS011;1991;48.682;9.030;2023-01-29T08:27:09;8.53;;;6.87;;
3953;SDS011;1991;48.682;9.030;2023-01-29T08:29:35;7.13;;;6.43;;
3953;SDS011;1991;48.682;9.030;2023-01-29T08:32:00;6.67;;;5.83;;
3953;SDS011;1991;48.682;9.030;2023-01-29T08:34:26;9.17;;;6.20;;
3953;SDS011;1991;48.682;9.030;2023-01-29T08:36:51;7.27;;;6.57;;
3953;SDS011;1991;48.682;9.030;2023-01-29T08:39:17;7.70;;;5.90;;
3953;SDS011;1991;48.682;9.030;2023-01-29T08:41:43;8.80;;;6.03;;
3953;SDS011;1991;48.682;9.030;2023-01-29T08:44:08;7.73;;;6.60;;
3953;SDS011;1991;48.682;9.030;2023-01-29T08:46:34;9.30;;;6.03;;
3953;SDS011;1991;48.682;9.030;2023-01-29T08:49:01;7.73;;;6.70;;
3953;SDS011;1991;48.682;9.030;2023-01-29T08:51:26;6.63;;;5.67;;
3953;SDS011;1991;48.682;9.030;2023-01-29T08:53:52;8.37;;;6.70;;
3953;SDS011;1991;48.682;9.030;2023-01-29T08:56:18;6.37;;;5.27;;
3953;SDS011;1991;48.682;9.030;2023-01-29T08:58:43;7.60;;;6.83;;
3953;SDS011;1991;48.682;9.030;2023-01-29T09:01:10;7.87;;;6.80;;
3953;SDS011;1991;48.682;9.030;2023-01-29T09:03:37;7.07;;;6.23;;
3953;SDS011;1991;48.682;9.030;2023-01-29T09:06:08;8.67;;;7.77;;
3953;SDS011;1991;48.682;9.030;2023-01-29T09:08:37;10.23;;;6.07;;
3953;SDS011;1991;48.682;9.030;2023-01-29T09:11:03;7.13;;;6.23;;
3953;SDS011;1991;48.682;9.030;2023-01-29T09:13:29;7.33;;;6.30;;
3953;SDS011;1991;48.682;9.030;2023-01-29T09:16:01;7.53;;;6.57;;
3953;SDS011;1991;48.682;9.030;2023-01-29T09:18:28;7.33;;;6.57;;
3953;SDS011;1991;48.682;9.030;2023-01-29T09:20:54;7.37;;;6.30;;
3953;SDS011;1991;48.682;9.030;2023-01-29T09:23:20;6.97;;;6.23;;
3953;SDS011;1991;48.682;9.030;2023-01-29T09:25:46;7.73;;;6.03;;
3953;SDS011;1991;48.682;9.030;2023-01-29T09:28:12;7.20;;;6.50;;
3953;SDS011;1991;48.682;9.030;2023-01-29T09:30:37;7.70;;;5.87;;
3953;SDS011;1991;48.682;9.030;2023-01-29T09:33:03;8.07;;;6.90;;
3953;SDS011;1991;48.682;9.030;2023-01-29T09:35:30;8.57;;;7.77;;
3953;SDS011;1991;48.682;9.030;2023-01-29T09:37:55;7.07;;;6.37;;
3953;SDS011;1991;48.682;9.030;2023-01-29T09:42:55;8.17;;;6.60;;
3953;SDS011;1991;48.682;9.030;2023-01-29T09:45:35;7.00;;;6.27;;
3953;SDS011;1991;48.682;9.030;2023-01-29T09:48:07;7.63;;;6.23;;
3953;SDS011;1991;48.682;9.030;2023-01-29T09:50:40;7.53;;;6.27;;
3953;SDS011;1991;48.682;9.030;2023-01-29T09:56:16;6.73;;;5.73;;
3953;SDS011;1991;48.682;9.030;2023-01-29T09:58:45;7.60;;;6.07;;
3953;SDS011;1991;48.682;9.030;2023-01-29T10:01:12;7.53;;;6.23;;
3953;SDS011;1991;48.682;9.030;2023-01-29T10:06:22;6.97;;;6.27;;
3953;SDS011;1991;48.682;9.030;2023-01-29T10:14:12;8.13;;;6.57;;
3953;SDS011;1991;48.682;9.030;2023-01-29T10:22:05;7.93;;;6.70;;
3953;SDS011;1991;48.682;9.030;2023-01-29T10:24:51;6.90;;;6.20;;
3953;SDS011;1991;48.682;9.030;2023-01-29T10:27:21;7.63;;;6.47;;
3953;SDS011;1991;48.682;9.030;2023-01-29T10:29:51;7.93;;;6.80;;
3953;SDS011;1991;48.682;9.030;2023-01-29T10:32:20;8.03;;;6.80;;
3953;SDS011;1991;48.682;9.030;2023-01-29T10:34:56;7.83;;;6.90;;
3953;SDS011;1991;48.682;9.030;2023-01-29T10:37:36;8.43;;;6.93;;
3953;SDS011;1991;48.682;9.030;2023-01-29T10:40:11;7.10;;;6.40;;
3953;SDS011;1991;48.682;9.030;2023-01-29T10:42:51;7.63;;;6.87;;
3953;SDS011;1991;48.682;9.030;2023-01-29T10:48:08;9.03;;;6.67;;
3953;SDS011;1991;48.682;9.030;2023-01-29T10:50:54;6.70;;;5.90;;
3953;SDS011;1991;48.682;9.030;2023-01-29T10:54:01;6.97;;;6.37;;
3953;SDS011;1991;48.682;9.030;2023-01-29T10:59:22;6.90;;;6.20;;
3953;SDS011;1991;48.682;9.030;2023-01-29T11:01:58;7.07;;;6.37;;
3953;SDS011;1991;48.682;9.030;2023-01-29T11:04:25;7.20;;;6.50;;
3953;SDS011;1991;48.682;9.030;2023-01-29T11:06:52;7.03;;;6.33;;
3953;SDS011;1991;48.682;9.030;2023-01-29T11:09:34;7.40;;;6.70;;
3953;SDS011;1991;48.682;9.030;2023-01-29T11:12:16;8.17;;;6.73;;
3953;SDS011;1991;48.682;9.030;2023-01-29T11:14:45;8.07;;;6.33;;
3953;SDS011;1991;48.682;9.030;2023-01-29T11:17:20;7.37;;;6.60;;
3953;SDS011;1991;48.682;9.030;2023-01-29T11:19:48;7.43;;;6.43;;
3953;SDS011;1991;48.682;9.030;2023-01-29T11:22:20;8.03;;;6.97;;
3953;SDS011;1991;48.682;9.030;2023-01-29T11:25:06;6.30;;;5.70;;
3953;SDS011;1991;48.682;9.030;2023-01-29T11:27:44;7.57;;;6.83;;
3953;SDS011;1991;48.682;9.030;2023-01-29T11:33:08;6.70;;;6.10;;
3953;SDS011;1991;48.682;9.030;2023-01-29T11:35:42;6.77;;;6.07;;
3953;SDS011;1991;48.682;9.030;2023-01-29T11:40:40;8.00;;;6.63;;
3953;SDS011;1991;48.682;9.030;2023-01-29T11:43:10;7.50;;;6.70;;
3953;SDS011;1991;48.682;9.030;2023-01-29T11:45:55;8.07;;;6.83;;
3953;SDS011;1991;48.682;9.030;2023-01-29T11:48:25;8.87;;;6.93;;
3953;SDS011;1991;48.682;9.030;2023-01-29T11:51:22;8.13;;;6.67;;
3953;SDS011;1991;48.682;9.030;2023-01-29T11:53:51;8.77;;;6.93;;
3953;SDS011;1991;48.682;9.030;2023-01-29T11:56:41;9.43;;;6.87;;
3953;SDS011;1991;48.682;9.030;2023-01-29T11:59:20;8.17;;;7.10;;
3953;SDS011;1991;48.682;9.030;2023-01-29T12:01:49;9.10;;;6.93;;
3953;SDS011;1991;48.682;9.030;2023-01-29T12:04:17;9.37;;;7.03;;
3953;SDS011;1991;48.682;9.030;2023-01-29T12:06:46;10.87;;;7.33;;
3953;SDS011;1991;48.682;9.030;2023-01-29T12:09:17;8.77;;;7.53;;
3953;SDS011;1991;48.682;9.030;2023-01-29T12:11:45;8.50;;;7.57;;
3953;SDS011;1991;48.682;9.030;2023-01-29T12:14:30;8.17;;;7.10;;
3953;SDS011;1991;48.682;9.030;2023-01-29T12:25:04;8.20;;;7.40;;
3953;SDS011;1991;48.682;9.030;2023-01-29T12:27:37;8.07;;;6.53;;
3953;SDS011;1991;48.682;9.030;2023-01-29T12:36:08;9.17;;;7.53;;
3953;SDS011;1991;48.682;9.030;2023-01-29T12:38:38;7.87;;;6.70;;
3953;SDS011;1991;48.682;9.030;2023-01-29T12:43:57;8.63;;;6.27;;
3953;SDS011;1991;48.682;9.030;2023-01-29T12:46:30;7.20;;;6.50;;
3953;SDS011;1991;48.682;9.030;2023-01-29T12:49:02;9.50;;;6.50;;
3953;SDS011;1991;48.682;9.030;2023-01-29T12:51:45;6.73;;;6.10;;
3953;SDS011;1991;48.682;9.030;2023-01-29T12:54:35;7.13;;;5.73;;
3953;SDS011;1991;48.682;9.030;2023-01-29T12:57:20;7.13;;;6.43;;
3953;SDS011;1991;48.682;9.030;2023-01-29T13:00:01;7.17;;;5.80;;
3953;SDS011;1991;48.682;9.030;2023-01-29T13:02:34;6.20;;;5.60;;
3953;SDS011;1991;48.682;9.030;2023-01-29T13:05:23;6.20;;;5.60;;
3953;SDS011;1991;48.682;9.030;2023-01-29T13:07:55;6.13;;;5.53;;
3953;SDS011;1991;48.682;9.030;2023-01-29T13:10:27;6.60;;;6.00;;
3953;SDS011;1991;48.682;9.030;2023-01-29T13:13:00;6.03;;;5.53;;
3953;SDS011;1991;48.682;9.030;2023-01-29T13:15:45;6.10;;;5.50;;
3953;SDS011;1991;48.682;9.030;2023-01-29T13:21:06;6.05;;;5.53;;
3953;SDS011;1991;48.682;9.030;2023-01-29T13:23:44;6.70;;;6.10;;
3953;SDS011;1991;48.682;9.030;2023-01-29T13:26:36;7.85;;;6.50;;
3953;SDS011;1991;48.682;9.030;2023-01-29T13:29:03;6.75;;;6.05;;
3953;SDS011;1991;48.682;9.030;2023-01-29T13:36:30;6.32;;;5.75;;
3953;SDS011;1991;48.682;9.030;2023-01-29T13:39:04;6.57;;;5.70;;
3953;SDS011;1991;48.682;9.030;2023-01-29T13:41:37;5.80;;;5.30;;
3953;SDS011;1991;48.682;9.030;2023-01-29T13:44:06;6.70;;;6.10;;
3953;SDS011;1991;48.682;9.030;2023-01-29T13:46:42;9.32;;;8.10;;
3953;SDS011;1991;48.682;9.030;2023-01-29T13:54:54;9.23;;;6.27;;
3953;SDS011;1991;48.682;9.030;2023-01-29T14:00:55;7.20;;;6.50;;
3953;SDS011;1991;48.682;9.030;2023-01-29T14:07:59;7.30;;;6.60;;
3953;SDS011;1991;48.682;9.030;2023-01-29T14:13:42;7.83;;;6.97;;
3953;SDS011;1991;48.682;9.030;2023-01-29T14:18:44;8.37;;;6.90;;
3953;SDS011;1991;48.682;9.030;2023-01-29T14:23:47;7.63;;;6.83;;
3953;SDS011;1991;48.682;9.030;2023-01-29T14:26:22;8.37;;;7.20;;
3953;SDS011;1991;48.682;9.030;2023-01-29T14:28:52;8.33;;;6.97;;
3953;SDS011;1991;48.682;9.030;2023-01-29T14:36:57;9.53;;;8.07;;
3953;SDS011;1991;48.682;9.030;2023-01-29T14:39:42;9.60;;;7.77;;
3953;SDS011;1991;48.682;9.030;2023-01-29T14:42:24;8.67;;;7.67;;
3953;SDS011;1991;48.682;9.030;2023-01-29T14:44:59;10.57;;;7.87;;
3953;SDS011;1991;48.682;9.030;2023-01-29T14:53:15;8.57;;;7.27;;
3953;SDS011;1991;48.682;9.030;2023-01-29T14:58:37;9.23;;;7.90;;
3953;SDS011;1991;48.682;9.030;2023-01-29T15:01:34;9.07;;;7.03;;
3953;SDS011;1991;48.682;9.030;2023-01-29T15:06:46;9.63;;;7.57;;
3953;SDS011;1991;48.682;9.030;2023-01-29T15:11:51;9.03;;;7.40;;
3953;SDS011;1991;48.682;9.030;2023-01-29T15:14:31;8.43;;;7.53;;
3953;SDS011;1991;48.682;9.030;2023-01-29T15:17:28;12.40;;;7.70;;
3953;SDS011;1991;48.682;9.030;2023-01-29T15:19:58;8.93;;;7.73;;
3953;SDS011;1991;48.682;9.030;2023-01-29T15:22:24;8.60;;;7.40;;
3953;SDS011;1991;48.682;9.030;2023-01-29T15:27:48;11.27;;;7.60;;
3953;SDS011;1991;48.682;9.030;2023-01-29T15:30:15;8.97;;;7.63;;
3953;SDS011;1991;48.682;9.030;2023-01-29T15:32:43;8.47;;;7.30;;
3953;SDS011;1991;48.682;9.030;2023-01-29T15:35:12;8.70;;;7.80;;
3953;SDS011;1991;48.682;9.030;2023-01-29T15:37:42;9.83;;;7.37;;
3953;SDS011;1991;48.682;9.030;2023-01-29T15:40:11;9.30;;;7.60;;
3953;SDS011;1991;48.682;9.030;2023-01-29T15:42:44;8.47;;;7.60;;
3953;SDS011;1991;48.682;9.030;2023-01-29T15:45:20;9.40;;;7.97;;
3953;SDS011;1991;48.682;9.030;2023-01-29T15:47:56;12.10;;;7.77;;
3953;SDS011;1991;48.682;9.030;2023-01-29T15:50:28;9.30;;;7.70;;
3953;SDS011;1991;48.682;9.030;2023-01-29T15:52:55;8.40;;;7.50;;
3953;SDS011;1991;48.682;9.030;2023-01-29T15:55:24;9.33;;;7.53;;
3953;SDS011;1991;48.682;9.030;2023-01-29T15:57:51;10.53;;;8.70;;
3953;SDS011;1991;48.682;9.030;2023-01-29T16:00:24;9.97;;;8.23;;
3953;SDS011;1991;48.682;9.030;2023-01-29T16:02:52;11.67;;;8.43;;
3953;SDS011;1991;48.682;9.030;2023-01-29T16:05:20;9.97;;;7.83;;
3953;SDS011;1991;48.682;9.030;2023-01-29T16:07:54;11.57;;;8.80;;
3953;SDS011;1991;48.682;9.030;2023-01-29T16:10:22;10.27;;;7.97;;
3953;SDS011;1991;48.682;9.030;2023-01-29T16:12:50;9.70;;;7.97;;
3953;SDS011;1991;48.682;9.030;2023-01-29T16:15:22;10.93;;;8.30;;
3953;SDS011;1991;48.682;9.030;2023-01-29T16:18:17;10.03;;;8.00;;
3953;SDS011;1991;48.682;9.030;2023-01-29T16:20:48;10.40;;;7.90;;
3953;SDS011;1991;48.682;9.030;2023-01-29T16:23:21;11.63;;;8.57;;
3953;SDS011;1991;48.682;9.030;2023-01-29T16:25:49;12.53;;;8.43;;
3953;SDS011;1991;48.682;9.030;2023-01-29T16:28:16;10.63;;;7.83;;
3953;SDS011;1991;48.682;9.030;2023-01-29T16:30:42;15.37;;;10.53;;
3953;SDS011;1991;48.682;9.030;2023-01-29T16:33:11;16.97;;;11.23;;
3953;SDS011;1991;48.682;9.030;2023-01-29T16:35:39;17.67;;;12.17;;
3953;SDS011;1991;48.682;9.030;2023-01-29T16:38:23;15.73;;;11.60;;
3953;SDS011;1991;48.682;9.030;2023-01-29T16:41:04;16.83;;;12.27;;
3953;SDS011;1991;48.682;9.030;2023-01-29T16:43:48;18.07;;;12.87;;
3953;SDS011;1991;48.682;9.030;2023-01-29T16:48:55;17.87;;;12.80;;
3953;SDS011;1991;48.682;9.030;2023-01-29T16:51:35;19.50;;;13.03;;
3953;SDS011;1991;48.682;9.030;2023-01-29T16:54:12;19.13;;;12.80;;
3953;SDS011;1991;48.682;9.030;2023-01-29T16:56:47;17.13;;;13.67;;
3953;SDS011;1991;48.682;9.030;2023-01-29T16:59:16;22.80;;;14.37;;
3953;SDS011;1991;48.682;9.030;2023-01-29T17:01:44;21.97;;;14.80;;
3953;SDS011;1991;48.682;9.030;2023-01-29T17:04:13;19.37;;;12.00;;
3953;SDS011;1991;48.682;9.030;2023-01-29T17:06:43;20.73;;;13.53;;
3953;SDS011;1991;48.682;9.030;2023-01-29T17:09:20;17.17;;;12.00;;
3953;SDS011;1991;48.682;9.030;2023-01-29T17:11:52;15.83;;;11.03;;
3953;SDS011;1991;48.682;9.030;2023-01-29T17:14:23;18.03;;;12.17;;
3953;SDS011;1991;48.682;9.030;2023-01-29T17:17:03;19.00;;;12.97;;
3953;SDS011;1991;48.682;9.030;2023-01-29T17:19:31;22.57;;;14.37;;
3953;SDS011;1991;48.682;9.030;2023-01-29T17:21:57;21.00;;;15.03;;
3953;SDS011;1991;48.682;9.030;2023-01-29T17:24:23;20.60;;;14.97;;
3953;SDS011;1991;48.682;9.030;2023-01-29T17:26:49;23.70;;;15.73;;
3953;SDS011;1991;48.682;9.030;2023-01-29T17:29:16;23.50;;;15.73;;
3953;SDS011;1991;48.682;9.030;2023-01-29T17:31:44;25.70;;;15.70;;
3953;SDS011;1991;48.682;9.030;2023-01-29T17:34:13;20.60;;;14.60;;
3953;SDS011;1991;48.682;9.030;2023-01-29T17:36:40;24.57;;;15.33;;
3953;SDS011;1991;48.682;9.030;2023-01-29T17:39:25;21.23;;;14.37;;
3953;SDS011;1991;48.682;9.030;2023-01-29T17:41:52;23.07;;;15.07;;
3953;SDS011;1991;48.682;9.030;2023-01-29T17:44:21;28.73;;;18.47;;
3953;SDS011;1991;48.682;9.030;2023-01-29T17:46:50;28.63;;;16.33;;
3953;SDS011;1991;48.682;9.030;2023-01-29T17:49:20;27.73;;;15.77;;
3953;SDS011;1991;48.682;9.030;2023-01-29T17:52:05;24.17;;;17.97;;
3953;SDS011;1991;48.682;9.030;2023-01-29T17:54:30;24.03;;;16.10;;
3953;SDS011;1991;48.682;9.030;2023-01-29T17:56:56;21.93;;;15.20;;